createdAt,value
2018-09-29T00:01:38.681Z,57.51
2018-09-29T00:04:08.286Z,57.82
2018-09-29T00:06:37.770Z,58.08
2018-09-29T00:09:09.808Z,58.50
2018-09-29T00:11:39.280Z,58.56
2018-09-29T00:14:09.621Z,58.82
2018-09-29T00:16:39.338Z,58.53
2018-09-29T00:19:08.828Z,58.83
2018-09-29T00:21:38.405Z,59.30
2018-09-29T00:24:07.972Z,59.49
2018-09-29T00:26:37.612Z,61.33
2018-09-29T00:29:07.130Z,60.49
2018-09-29T00:31:36.828Z,59.97
2018-09-29T00:34:06.536Z,59.83
2018-09-29T00:36:36.048Z,60.71
2018-09-29T00:39:07.501Z,60.59
2018-09-29T00:41:37.417Z,60.24
2018-09-29T00:44:07.009Z,60.36
2018-09-29T00:46:36.721Z,59.56
2018-09-29T00:49:06.426Z,59.49
2018-09-29T00:51:36.034Z,59.66
2018-09-29T00:54:05.484Z,59.68
2018-09-29T00:56:35.252Z,60.11
2018-09-29T00:59:04.732Z,59.88
2018-09-29T01:01:34.359Z,59.49
2018-09-29T01:04:03.969Z,58.47
2018-09-29T01:06:33.575Z,59.68
2018-09-29T01:09:03.284Z,60.00
2018-09-29T01:11:32.991Z,60.36
2018-09-29T01:14:02.698Z,60.48
2018-09-29T01:16:32.204Z,60.49
2018-09-29T01:19:01.913Z,60.36
2018-09-29T01:21:31.728Z,60.62
2018-09-29T01:24:01.432Z,61.09
2018-09-29T01:26:32.130Z,61.33
2018-09-29T01:29:01.917Z,61.63
2018-09-29T01:31:31.787Z,61.58
2018-09-29T01:34:01.499Z,61.75
2018-09-29T01:36:30.943Z,61.32
2018-09-29T01:39:01.629Z,61.87
2018-09-29T01:41:31.414Z,61.97
2018-09-29T01:44:01.013Z,62.71
2018-09-29T01:46:30.764Z,61.89
2018-09-29T01:49:00.292Z,61.78
2018-09-29T01:51:29.971Z,61.04
2018-09-29T01:53:59.524Z,61.10
2018-09-29T01:56:29.492Z,61.76
2018-09-29T01:58:59.405Z,62.20
2018-09-29T02:01:29.114Z,63.53
2018-09-29T02:03:58.884Z,63.88
2018-09-29T02:06:28.737Z,64.42
2018-09-29T02:08:58.446Z,63.57
2018-09-29T02:11:28.215Z,63.06
2018-09-29T02:13:58.276Z,63.40
2018-09-29T02:16:27.985Z,63.39
2018-09-29T02:18:58.081Z,63.40
2018-09-29T02:21:27.891Z,61.93
2018-09-29T02:23:57.621Z,62.98
2018-09-29T02:26:27.136Z,64.01
2018-09-29T02:28:56.846Z,63.80
2018-09-29T02:31:26.647Z,64.46
2018-09-29T02:33:56.163Z,64.53
2018-09-29T02:36:25.865Z,63.96
2018-09-29T02:38:55.467Z,64.03
2018-09-29T02:41:25.178Z,63.83
2018-09-29T02:43:56.015Z,64.12
2018-09-29T02:46:25.720Z,63.30
2018-09-29T02:48:55.437Z,63.35
2018-09-29T02:51:25.039Z,63.76
2018-09-29T02:53:54.745Z,63.59
2018-09-29T02:56:24.230Z,64.00
2018-09-29T02:58:54.146Z,64.47
2018-09-29T03:01:23.769Z,64.25
2018-09-29T03:03:53.350Z,64.26
2018-09-29T03:06:22.984Z,64.03
2018-09-29T03:08:52.735Z,64.28
2018-09-29T03:11:22.398Z,64.88
2018-09-29T03:13:52.116Z,64.63
2018-09-29T03:16:21.821Z,64.59
2018-09-29T03:18:51.426Z,64.92
2018-09-29T03:21:21.298Z,64.90
2018-09-29T03:23:50.844Z,64.54
2018-09-29T03:26:20.385Z,64.39
2018-09-29T03:28:51.084Z,64.11
2018-09-29T03:31:20.635Z,64.38
2018-09-29T03:33:50.304Z,64.37
2018-09-29T03:36:19.798Z,64.38
2018-09-29T03:38:49.379Z,64.58
2018-09-29T03:41:19.017Z,64.78
2018-09-29T03:43:48.598Z,65.11
2018-09-29T03:46:18.257Z,64.92
2018-09-29T03:48:47.764Z,64.60
2018-09-29T03:51:17.317Z,64.49
2018-09-29T03:53:47.043Z,64.59
2018-09-29T03:56:16.681Z,64.37
2018-09-29T03:58:46.459Z,64.38
2018-09-29T04:01:16.170Z,64.46
2018-09-29T04:03:45.652Z,64.52
2018-09-29T04:06:15.121Z,64.30
2018-09-29T04:08:45.197Z,64.45
2018-09-29T04:11:14.905Z,64.56
2018-09-29T04:13:44.594Z,64.82
2018-09-29T04:16:14.072Z,64.74
2018-09-29T04:18:43.605Z,64.65
2018-09-29T04:21:13.136Z,64.59
2018-09-29T04:23:42.756Z,65.01
2018-09-29T04:26:12.281Z,65.26
2018-09-29T04:28:42.000Z,65.31
2018-09-29T04:31:11.754Z,65.20
2018-09-29T04:33:41.174Z,65.14
2018-09-29T04:36:10.677Z,65.12
2018-09-29T04:38:40.084Z,65.08
2018-09-29T04:41:10.126Z,65.11
2018-09-29T04:43:39.893Z,64.74
2018-09-29T04:46:09.425Z,65.07
2018-09-29T04:48:38.915Z,65.57
2018-09-29T04:51:08.351Z,65.22
2018-09-29T04:53:38.520Z,65.07
2018-09-29T04:56:08.127Z,65.12
2018-09-29T04:58:37.872Z,65.50
2018-09-29T05:01:07.878Z,65.13
2018-09-29T05:03:37.873Z,64.55
2018-09-29T05:06:07.607Z,65.21
2018-09-29T05:08:37.388Z,65.17
2018-09-29T05:11:06.920Z,64.73
2018-09-29T05:13:36.409Z,64.53
2018-09-29T05:16:05.990Z,64.65
2018-09-29T05:18:35.514Z,64.45
2018-09-29T05:21:05.029Z,64.49
2018-09-29T05:23:34.721Z,64.33
2018-09-29T05:26:04.343Z,64.89
2018-09-29T05:28:33.855Z,65.23
2018-09-29T05:31:03.420Z,65.06
2018-09-29T05:33:33.148Z,65.11
2018-09-29T05:36:02.654Z,65.08
2018-09-29T05:38:32.453Z,65.49
2018-09-29T05:41:02.143Z,65.45
2018-09-29T05:43:32.194Z,65.73
2018-09-29T05:46:01.826Z,65.74
2018-09-29T05:48:31.606Z,66.09
2018-09-29T05:51:01.417Z,66.00
2018-09-29T05:53:30.931Z,66.13
2018-09-29T05:56:00.737Z,66.53
2018-09-29T05:58:30.244Z,66.44
2018-09-29T06:00:59.788Z,66.23
2018-09-29T06:03:29.352Z,66.69
2018-09-29T06:06:02.773Z,66.75
2018-09-29T06:08:32.404Z,66.79
2018-09-29T06:11:01.957Z,66.86
2018-09-29T06:13:31.768Z,66.61
2018-09-29T06:16:01.595Z,66.87
2018-09-29T06:18:31.303Z,67.56
2018-09-29T06:21:00.787Z,67.49
2018-09-29T06:23:30.304Z,67.09
2018-09-29T06:26:00.210Z,67.34
2018-09-29T06:28:29.745Z,67.42
2018-09-29T06:30:59.475Z,67.74
2018-09-29T06:33:30.215Z,67.74
2018-09-29T06:36:00.145Z,68.43
2018-09-29T06:38:43.023Z,68.32
2018-09-29T06:41:12.529Z,68.50
2018-09-29T06:43:42.202Z,68.57
2018-09-29T06:46:13.038Z,68.06
2018-09-29T06:48:42.756Z,68.23
2018-09-29T06:51:12.558Z,67.97
2018-09-29T06:53:42.055Z,67.60
2018-09-29T06:56:11.982Z,68.54
2018-09-29T06:58:41.690Z,68.52
2018-09-29T07:01:11.275Z,68.42
2018-09-29T07:03:40.690Z,68.74
2018-09-29T07:06:10.396Z,69.08
2018-09-29T07:08:39.910Z,69.17
2018-09-29T07:11:09.839Z,68.38
2018-09-29T07:13:39.426Z,67.40
2018-09-29T07:16:09.070Z,67.22
2018-09-29T07:18:38.580Z,65.58
2018-09-29T07:21:08.144Z,64.67
2018-09-29T07:23:38.261Z,64.07
2018-09-29T07:26:07.957Z,64.53
2018-09-29T07:28:37.424Z,64.41
2018-09-29T07:31:07.328Z,64.36
2018-09-29T07:33:36.796Z,65.52
2018-09-29T07:36:06.906Z,65.29
2018-09-29T07:38:36.548Z,65.00
2018-09-29T07:41:06.187Z,65.25
2018-09-29T07:43:36.580Z,65.67
2018-09-29T07:46:06.360Z,65.89
2018-09-29T07:48:35.972Z,65.59
2018-09-29T07:51:05.478Z,64.37
2018-09-29T07:53:35.235Z,65.10
2018-09-29T07:56:05.299Z,66.19
2018-09-29T07:58:34.903Z,66.10
2018-09-29T08:01:04.347Z,65.45
2018-09-29T08:03:33.913Z,65.43
2018-09-29T08:06:03.620Z,64.44
2018-09-29T08:08:33.138Z,65.38
2018-09-29T08:11:02.838Z,64.42
2018-09-29T08:13:32.458Z,63.61
2018-09-29T08:16:01.956Z,64.68
2018-09-29T08:18:31.432Z,63.31
2018-09-29T08:21:01.055Z,61.52
2018-09-29T08:23:30.762Z,60.92
2018-09-29T08:26:00.473Z,59.81
2018-09-29T08:28:30.289Z,59.79
2018-09-29T08:30:59.994Z,57.21
2018-09-29T08:33:29.685Z,54.52
2018-09-29T08:35:59.182Z,55.07
2018-09-29T08:38:28.983Z,54.16
2018-09-29T08:40:58.931Z,51.76
2018-09-29T08:43:28.699Z,50.00
2018-09-29T08:45:58.464Z,49.55
2018-09-29T08:48:28.059Z,48.22
2018-09-29T08:50:57.601Z,47.57
2018-09-29T08:53:27.381Z,47.96
2018-09-29T08:55:56.946Z,46.83
2018-09-29T08:58:26.556Z,45.60
2018-09-29T09:00:56.113Z,44.12
2018-09-29T09:03:25.842Z,43.54
2018-09-29T09:05:55.401Z,45.00
2018-09-29T09:08:25.013Z,46.76
2018-09-29T09:10:54.824Z,46.59
2018-09-29T09:13:24.332Z,45.15
2018-09-29T09:15:53.783Z,47.33
2018-09-29T09:18:23.546Z,45.84
2018-09-29T09:20:54.281Z,44.35
2018-09-29T09:23:23.806Z,45.56
2018-09-29T09:25:53.393Z,45.90
2018-09-29T09:28:23.095Z,45.01
2018-09-29T09:30:52.789Z,45.36
2018-09-29T09:33:22.310Z,43.62
2018-09-29T09:35:51.781Z,44.34
2018-09-29T09:38:21.334Z,43.48
2018-09-29T09:40:50.921Z,43.17
2018-09-29T09:43:20.698Z,42.62
2018-09-29T09:45:50.780Z,41.30
2018-09-29T09:48:20.318Z,42.68
2018-09-29T09:50:50.010Z,44.07
2018-09-29T09:53:19.672Z,40.42
2018-09-29T09:55:49.252Z,41.46
2018-09-29T09:58:18.884Z,40.79
2018-09-29T10:00:54.023Z,40.91
2018-09-29T10:03:29.976Z,38.16
2018-09-29T10:05:59.814Z,38.48
2018-09-29T10:08:29.292Z,39.92
2018-09-29T10:10:58.821Z,40.71
2018-09-29T10:13:29.528Z,39.74
2018-09-29T10:15:59.319Z,41.23
2018-09-29T10:18:28.828Z,39.83
2018-09-29T10:20:58.553Z,41.55
2018-09-29T10:23:29.109Z,40.51
2018-09-29T10:25:58.662Z,40.56
2018-09-29T10:28:28.327Z,40.14
2018-09-29T10:30:57.908Z,41.56
2018-09-29T10:33:28.737Z,41.20
2018-09-29T10:35:58.548Z,40.42
2018-09-29T10:38:28.287Z,40.13
2018-09-29T10:40:57.864Z,38.29
2018-09-29T10:43:27.590Z,39.52
2018-09-29T10:45:57.639Z,40.67
2018-09-29T10:48:27.727Z,43.92
2018-09-29T10:50:57.466Z,40.89
2018-09-29T10:53:27.127Z,37.97
2018-09-29T10:55:56.724Z,37.55
2018-09-29T10:58:26.340Z,41.14
2018-09-29T11:00:55.913Z,40.27
2018-09-29T11:03:25.359Z,41.24
2018-09-29T11:05:55.055Z,40.09
2018-09-29T11:08:24.764Z,40.80
2018-09-29T11:10:54.882Z,39.59
2018-09-29T11:13:24.591Z,39.61
2018-09-29T11:15:54.212Z,38.93
2018-09-29T11:18:23.806Z,38.90
2018-09-29T11:20:53.357Z,37.39
2018-09-29T11:23:22.868Z,36.88
2018-09-29T11:25:52.523Z,39.01
2018-09-29T11:28:22.539Z,37.32
2018-09-29T11:30:52.044Z,35.81
2018-09-29T11:33:21.741Z,37.62
2018-09-29T11:35:51.274Z,38.89
2018-09-29T11:38:20.967Z,38.11
2018-09-29T11:40:50.674Z,38.09
2018-09-29T11:43:20.485Z,36.15
2018-09-29T11:45:51.116Z,37.90
2018-09-29T11:48:20.825Z,37.24
2018-09-29T11:50:50.333Z,32.27
2018-09-29T11:53:19.935Z,34.09
2018-09-29T11:55:49.644Z,36.56
2018-09-29T11:58:19.076Z,34.24
2018-09-29T12:00:48.688Z,36.47
2018-09-29T12:03:18.466Z,34.71
2018-09-29T12:05:48.231Z,32.21
2018-09-29T12:08:17.729Z,33.44
2018-09-29T12:10:47.592Z,32.21
2018-09-29T12:13:17.216Z,32.50
2018-09-29T12:15:46.702Z,32.18
2018-09-29T12:18:16.165Z,33.24
2018-09-29T12:20:45.740Z,31.20
2018-09-29T12:23:15.525Z,31.68
2018-09-29T12:25:45.136Z,34.29
2018-09-29T12:28:14.568Z,34.10
2018-09-29T12:30:44.341Z,31.46
2018-09-29T12:33:13.948Z,34.48
2018-09-29T12:35:43.724Z,34.90
2018-09-29T12:38:13.263Z,35.49
2018-09-29T12:40:42.832Z,33.40
2018-09-29T12:43:12.363Z,31.03
2018-09-29T12:45:42.035Z,31.67
2018-09-29T12:48:11.896Z,30.68
2018-09-29T12:50:41.400Z,32.43
2018-09-29T12:53:11.008Z,30.99
2018-09-29T12:55:40.553Z,32.15
2018-09-29T12:58:10.092Z,31.67
2018-09-29T13:00:39.632Z,31.48
2018-09-29T13:03:09.228Z,33.57
2018-09-29T13:05:38.732Z,31.71
2018-09-29T13:08:09.417Z,33.05
2018-09-29T13:10:39.275Z,32.64
2018-09-29T13:13:08.815Z,30.00
2018-09-29T13:15:38.454Z,30.74
2018-09-29T13:18:07.999Z,30.32
2018-09-29T13:20:37.719Z,32.10
2018-09-29T13:23:07.412Z,32.29
2018-09-29T13:25:37.121Z,31.49
2018-09-29T13:28:06.932Z,31.42
2018-09-29T13:30:36.462Z,31.13
2018-09-29T13:33:06.368Z,31.59
2018-09-29T13:35:36.166Z,31.00
2018-09-29T13:38:05.666Z,30.92
2018-09-29T13:40:35.376Z,31.58
2018-09-29T13:43:04.883Z,32.20
2018-09-29T13:45:34.421Z,32.25
2018-09-29T13:48:04.094Z,30.84
2018-09-29T13:50:33.912Z,30.78
2018-09-29T13:53:03.613Z,32.04
2018-09-29T13:55:33.167Z,33.19
2018-09-29T13:58:02.828Z,31.66
2018-09-29T14:00:32.743Z,31.22
2018-09-29T14:03:02.238Z,31.35
2018-09-29T14:05:32.057Z,32.20
2018-09-29T14:08:01.589Z,31.74
2018-09-29T14:10:32.398Z,30.80
2018-09-29T14:13:02.209Z,30.39
2018-09-29T14:15:31.924Z,32.42
2018-09-29T14:18:01.659Z,32.70
2018-09-29T14:20:31.342Z,32.37
2018-09-29T14:23:01.049Z,31.13
2018-09-29T14:25:30.794Z,31.38
2018-09-29T14:28:00.369Z,31.35
2018-09-29T14:30:31.421Z,32.26
2018-09-29T14:33:00.904Z,32.43
2018-09-29T14:35:30.720Z,32.07
2018-09-29T14:38:00.425Z,33.32
2018-09-29T14:40:30.237Z,32.97
2018-09-29T14:42:59.750Z,31.90
2018-09-29T14:45:29.312Z,32.98
2018-09-29T14:47:58.777Z,32.61
2018-09-29T14:50:28.444Z,32.38
2018-09-29T14:52:57.901Z,31.90
2018-09-29T14:55:27.454Z,33.18
2018-09-29T14:57:57.167Z,33.99
2018-09-29T15:00:26.784Z,34.22
2018-09-29T15:02:56.449Z,34.67
2018-09-29T15:05:25.924Z,33.65
2018-09-29T15:07:55.585Z,34.84
2018-09-29T15:10:25.212Z,34.89
2018-09-29T15:12:55.316Z,34.75
2018-09-29T15:15:25.267Z,35.98
2018-09-29T15:17:56.079Z,35.12
2018-09-29T15:20:25.700Z,34.85
2018-09-29T15:22:55.921Z,34.73
2018-09-29T15:25:26.772Z,35.14
2018-09-29T15:27:56.642Z,35.61
2018-09-29T15:30:26.430Z,36.90
2018-09-29T15:32:56.956Z,36.35
2018-09-29T15:35:26.602Z,36.72
2018-09-29T15:37:56.123Z,37.58
2018-09-29T15:40:26.123Z,37.16
2018-09-29T15:42:56.341Z,37.43
2018-09-29T15:45:25.770Z,37.55
2018-09-29T15:47:55.341Z,38.04
2018-09-29T15:50:24.934Z,37.44
2018-09-29T15:52:54.669Z,38.70
2018-09-29T15:55:24.382Z,37.91
2018-09-29T15:57:54.151Z,38.39
2018-09-29T16:00:23.860Z,38.12
2018-09-29T16:02:54.639Z,39.03
2018-09-29T16:05:24.246Z,38.11
2018-09-29T16:07:53.949Z,38.82
2018-09-29T16:10:23.862Z,38.94
2018-09-29T16:12:53.568Z,38.85
2018-09-29T16:15:23.186Z,39.77
2018-09-29T16:17:52.987Z,39.36
2018-09-29T16:20:22.834Z,40.10
2018-09-29T16:22:52.617Z,39.49
2018-09-29T16:25:22.219Z,40.04
2018-09-29T16:27:52.485Z,41.19
2018-09-29T16:30:22.275Z,40.75
2018-09-29T16:32:51.961Z,40.41
2018-09-29T16:35:21.707Z,41.31
2018-09-29T16:37:51.794Z,40.94
2018-09-29T16:40:21.505Z,41.01
2018-09-29T16:42:53.868Z,41.46
2018-09-29T16:45:25.523Z,41.34
2018-09-29T16:47:56.529Z,41.17
2018-09-29T16:50:27.401Z,40.77
2018-09-29T16:52:58.032Z,41.64
2018-09-29T16:55:27.699Z,41.35
2018-09-29T16:57:57.550Z,41.93
2018-09-29T17:00:28.902Z,41.63
2018-09-29T17:02:58.574Z,41.70
2018-09-29T17:05:28.629Z,42.72
2018-09-29T17:07:58.333Z,42.01
2018-09-29T17:10:28.047Z,42.53
2018-09-29T17:12:59.296Z,43.12
2018-09-29T17:15:28.855Z,42.59
2018-09-29T17:17:58.543Z,42.96
2018-09-29T17:20:28.208Z,42.66
2018-09-29T17:22:57.921Z,43.14
2018-09-29T17:25:27.693Z,44.33
2018-09-29T17:27:57.540Z,45.16
2018-09-29T17:30:27.088Z,45.17
2018-09-29T17:32:56.912Z,45.48
2018-09-29T17:35:26.835Z,45.92
2018-09-29T17:37:56.821Z,45.28
2018-09-29T17:40:26.804Z,44.70
2018-09-29T17:42:56.514Z,45.44
2018-09-29T17:45:26.507Z,45.07
2018-09-29T17:47:56.238Z,45.21
2018-09-29T17:50:26.972Z,46.09
2018-09-29T17:52:56.550Z,47.03
2018-09-29T17:55:26.288Z,47.07
2018-09-29T17:57:56.052Z,48.56
2018-09-29T18:00:25.705Z,48.34
2018-09-29T18:02:55.260Z,48.64
2018-09-29T18:05:25.019Z,49.55
2018-09-29T18:07:54.830Z,50.00
2018-09-29T18:10:24.271Z,50.27
2018-09-29T18:12:53.802Z,51.01
2018-09-29T18:15:23.445Z,50.65
2018-09-29T18:17:53.002Z,50.88
2018-09-29T18:20:23.516Z,51.09
2018-09-29T18:22:53.030Z,51.36
2018-09-29T18:25:22.596Z,51.38
2018-09-29T18:27:52.237Z,51.72
2018-09-29T18:30:21.731Z,51.62
2018-09-29T18:32:51.546Z,52.01
2018-09-29T18:35:21.323Z,51.79
2018-09-29T18:37:51.033Z,51.63
2018-09-29T18:40:20.868Z,52.11
2018-09-29T18:42:50.352Z,52.43
2018-09-29T18:45:19.958Z,52.93
2018-09-29T18:47:49.617Z,53.39
2018-09-29T18:50:19.100Z,53.34
2018-09-29T18:52:48.703Z,53.65
2018-09-29T18:55:18.387Z,53.05
2018-09-29T18:57:48.020Z,52.80
2018-09-29T19:00:17.799Z,53.25
2018-09-29T19:02:47.509Z,53.75
2018-09-29T19:05:17.276Z,54.14
2018-09-29T19:07:46.734Z,54.19
2018-09-29T19:10:16.275Z,54.15
2018-09-29T19:12:46.019Z,54.32
2018-09-29T19:15:15.448Z,54.44
2018-09-29T19:17:45.976Z,55.63
2018-09-29T19:20:15.574Z,54.96
2018-09-29T19:22:45.036Z,55.66
2018-09-29T19:25:14.685Z,55.30
2018-09-29T19:27:44.144Z,55.22
2018-09-29T19:30:13.798Z,55.28
2018-09-29T19:32:43.350Z,55.08
2018-09-29T19:35:13.011Z,55.75
2018-09-29T19:37:42.719Z,55.84
2018-09-29T19:40:12.297Z,56.12
2018-09-29T19:42:41.835Z,55.95
2018-09-29T19:45:11.403Z,55.87
2018-09-29T19:47:40.888Z,55.62
2018-09-29T19:50:10.722Z,55.24
2018-09-29T19:52:40.365Z,55.91
2018-09-29T19:55:09.863Z,55.31
2018-09-29T19:57:40.802Z,55.28
2018-09-29T20:00:10.510Z,55.34
2018-09-29T20:02:39.979Z,55.66
2018-09-29T20:05:10.008Z,55.72
2018-09-29T20:07:39.752Z,55.90
2018-09-29T20:10:09.528Z,56.09
2018-09-29T20:12:40.401Z,55.85
2018-09-29T20:15:09.860Z,56.68
2018-09-29T20:17:39.389Z,56.20
2018-09-29T20:20:08.856Z,56.43
2018-09-29T20:22:38.749Z,56.51
2018-09-29T20:25:08.328Z,56.60
2018-09-29T20:27:37.772Z,57.84
2018-09-29T20:30:07.455Z,57.05
2018-09-29T20:32:36.956Z,57.59
2018-09-29T20:35:06.676Z,57.37
2018-09-29T20:37:36.153Z,57.29
2018-09-29T20:40:05.642Z,57.43
2018-09-29T20:42:35.180Z,57.90
2018-09-29T20:45:04.865Z,57.44
2018-09-29T20:47:34.572Z,57.93
2018-09-29T20:50:04.135Z,58.34
2018-09-29T20:52:34.094Z,58.49
2018-09-29T20:55:03.814Z,58.41
2018-09-29T20:57:33.307Z,58.76
2018-09-29T21:00:02.808Z,58.66
2018-09-29T21:02:32.446Z,58.84
2018-09-29T21:05:01.960Z,58.61
2018-09-29T21:07:31.478Z,58.83
2018-09-29T21:10:00.895Z,58.97
2018-09-29T21:12:30.509Z,59.19
2018-09-29T21:15:00.036Z,59.44
2018-09-29T21:17:29.554Z,59.47
2018-09-29T21:19:59.007Z,60.10
2018-09-29T21:22:28.791Z,60.02
2018-09-29T21:24:58.233Z,60.08
2018-09-29T21:27:27.772Z,60.27
2018-09-29T21:29:57.251Z,60.39
2018-09-29T21:32:26.827Z,61.15
2018-09-29T21:34:56.597Z,63.03
2018-09-29T21:37:26.159Z,63.64
2018-09-29T21:39:55.672Z,64.37
2018-09-29T21:42:25.534Z,64.53
2018-09-29T21:44:55.029Z,63.99
2018-09-29T21:47:24.722Z,64.52
2018-09-29T21:49:54.235Z,63.72
2018-09-29T21:52:23.874Z,63.75
2018-09-29T21:54:53.339Z,63.91
2018-09-29T21:57:23.256Z,63.91
2018-09-29T21:59:52.736Z,63.42
2018-09-29T22:02:22.223Z,64.18
2018-09-29T22:04:51.967Z,64.00
2018-09-29T22:07:21.670Z,63.31
2018-09-29T22:09:51.487Z,62.71
2018-09-29T22:12:21.211Z,62.26
2018-09-29T22:14:50.694Z,62.73
2018-09-29T22:17:20.328Z,62.35
2018-09-29T22:19:49.863Z,62.24
2018-09-29T22:22:19.420Z,61.99
2018-09-29T22:24:49.128Z,61.89
2018-09-29T22:27:18.733Z,63.34
2018-09-29T22:29:48.497Z,63.58
2018-09-29T22:32:18.160Z,63.09
2018-09-29T22:34:47.860Z,62.19
2018-09-29T22:37:17.416Z,62.55
2018-09-29T22:39:48.099Z,62.77
2018-09-29T22:42:17.612Z,61.48
2018-09-29T22:44:47.236Z,61.98
2018-09-29T22:47:16.773Z,62.13
2018-09-29T22:49:46.299Z,62.34
2018-09-29T22:52:15.758Z,62.27
2018-09-29T22:54:45.639Z,62.24
2018-09-29T22:57:15.244Z,62.05
2018-09-29T22:59:44.804Z,61.94
2018-09-29T23:02:14.276Z,61.80
2018-09-29T23:04:43.826Z,61.78
2018-09-29T23:07:13.356Z,61.84
2018-09-29T23:09:42.871Z,62.02
2018-09-29T23:12:12.336Z,61.77
2018-09-29T23:14:41.851Z,61.60
2018-09-29T23:17:11.319Z,61.44
2018-09-29T23:19:40.881Z,60.95
2018-09-29T23:22:10.719Z,61.38
2018-09-29T23:24:40.248Z,61.94
2018-09-29T23:27:09.814Z,62.27
2018-09-29T23:29:39.276Z,61.66
2018-09-29T23:32:08.736Z,62.02
2018-09-29T23:34:38.179Z,62.53
2018-09-29T23:37:07.924Z,61.91
2018-09-29T23:39:37.736Z,62.48
2018-09-29T23:42:07.196Z,62.69
2018-09-29T23:44:36.752Z,62.98
2018-09-29T23:47:06.201Z,62.76
2018-09-29T23:49:35.728Z,62.80
2018-09-29T23:52:05.192Z,62.72
2018-09-29T23:54:34.805Z,63.12
2018-09-29T23:57:04.363Z,62.99
2018-09-29T23:59:33.859Z,63.39
